Time;durP1;ratioP1;P1;durP2;ratioP2;P2;SDS_P1;SDS_P2;PMS_P1;PMS_P2;Temp;Humidity;BMP_temperature;BMP_pressure;BME280_temperature;BME280_humidity;BME280_pressure;Samples;Min_cycle;Max_cycle;Signal;HPM_P1;HPM_P2
2022/11/15 00:00:13;;;;;;;8.18;5.90;;;;;;;3.30;100.00;98288.91;4204296;28;20047;-72
2022/11/15 00:02:14;;;;;;;9.50;6.75;;;;;;;3.37;100.00;98294.63;4204079;28;20055;-72
2022/11/15 00:04:14;;;;;;;10.45;6.75;;;;;;;3.41;100.00;98296.72;4203281;28;20202;-73
2022/11/15 00:06:14;;;;;;;8.85;5.63;;;;;;;3.35;100.00;98285.19;4204285;28;20024;-73
2022/11/15 00:08:15;;;;;;;11.63;6.30;;;;;;;3.42;100.00;98299.13;4203006;28;20579;-73
2022/11/15 00:10:15;;;;;;;11.35;5.60;;;;;;;3.41;100.00;98283.84;4203558;28;20056;-72
2022/11/15 00:12:16;;;;;;;8.63;5.45;;;;;;;3.40;100.00;98286.91;4201861;28;20028;-73
2022/11/15 00:14:16;;;;;;;10.90;5.57;;;;;;;3.46;100.00;98289.09;4202383;28;20410;-73
2022/11/15 00:16:17;;;;;;;11.50;6.07;;;;;;;3.50;100.00;98289.22;4203604;28;20036;-72
2022/11/15 00:18:18;;;;;;;9.18;5.47;;;;;;;3.56;100.00;98274.22;4204236;28;20028;-72
2022/11/15 00:20:18;;;;;;;7.85;4.90;;;;;;;3.62;100.00;98275.59;4203536;28;20024;-73
2022/11/15 00:22:18;;;;;;;9.18;4.82;;;;;;;3.60;100.00;98278.66;4203607;28;20719;-73
2022/11/15 00:24:19;;;;;;;7.25;4.72;;;;;;;3.60;100.00;98275.13;4200322;28;20352;-73
2022/11/15 00:26:19;;;;;;;6.93;4.65;;;;;;;3.60;100.00;98277.88;4201557;28;20299;-73
2022/11/15 00:28:19;;;;;;;6.45;4.10;;;;;;;3.67;100.00;98278.13;4203050;28;20028;-73
2022/11/15 00:30:20;;;;;;;9.27;4.88;;;;;;;3.68;100.00;98279.72;4203351;28;20028;-73
2022/11/15 00:32:20;;;;;;;7.15;4.65;;;;;;;3.73;100.00;98275.97;4203851;28;20133;-73
2022/11/15 00:34:21;;;;;;;6.32;4.63;;;;;;;3.85;100.00;98289.69;4202695;28;20059;-73
2022/11/15 00:36:21;;;;;;;7.45;4.72;;;;;;;3.90;100.00;98279.31;4202109;28;20042;-73
2022/11/15 00:38:21;;;;;;;6.35;4.00;;;;;;;3.97;100.00;98284.22;4205758;28;20149;-73
2022/11/15 00:40:22;;;;;;;6.53;4.20;;;;;;;4.00;100.00;98285.50;4200571;28;20535;-72
2022/11/15 00:42:22;;;;;;;7.80;4.53;;;;;;;4.05;100.00;98288.00;4198805;28;20048;-73
2022/11/15 00:44:22;;;;;;;7.15;4.22;;;;;;;4.01;100.00;98289.84;4199336;28;20203;-73
2022/11/15 00:46:23;;;;;;;8.20;4.45;;;;;;;3.97;100.00;98288.91;4197843;28;20043;-73
2022/11/15 00:48:24;;;;;;;6.32;4.30;;;;;;;3.93;100.00;98286.84;4199300;28;20044;-72
2022/11/15 00:50:24;;;;;;;7.20;4.60;;;;;;;3.94;100.00;98288.44;4196210;28;20165;-73
2022/11/15 00:52:24;;;;;;;6.80;4.35;;;;;;;3.94;100.00;98299.41;4198084;28;20040;-73
2022/11/15 00:54:25;;;;;;;6.82;4.32;;;;;;;3.96;100.00;98285.38;4198444;28;20059;-73
2022/11/15 00:56:25;;;;;;;8.07;4.53;;;;;;;3.98;100.00;98285.84;4198273;28;20475;-73
2022/11/15 00:58:25;;;;;;;6.28;4.22;;;;;;;4.01;100.00;98282.41;4198070;28;20071;-73
2022/11/15 01:00:26;;;;;;;8.32;4.95;;;;;;;4.02;100.00;98269.53;4198965;28;20035;-73
2022/11/15 01:02:26;;;;;;;7.13;4.32;;;;;;;4.04;100.00;98283.69;4199026;28;20448;-73
2022/11/15 01:04:26;;;;;;;8.65;5.30;;;;;;;4.00;100.00;98267.13;4199660;28;20773;-73
2022/11/15 01:06:27;;;;;;;9.65;5.20;;;;;;;4.07;100.00;98267.38;4202612;28;20074;-73
2022/11/15 01:08:27;;;;;;;6.90;4.15;;;;;;;4.26;100.00;98266.03;4202789;28;20040;-73
2022/11/15 01:10:27;;;;;;;6.68;3.78;;;;;;;4.35;100.00;98263.97;4198107;28;20837;-73
2022/11/15 01:12:28;;;;;;;6.72;4.07;;;;;;;4.49;100.00;98264.44;4202375;28;20039;-73
2022/11/15 01:14:28;;;;;;;6.75;4.13;;;;;;;4.58;100.00;98262.38;4200047;28;20079;-73
2022/11/15 01:16:28;;;;;;;6.57;4.55;;;;;;;4.70;100.00;98270.56;4201577;28;20107;-73
2022/11/15 01:18:29;;;;;;;6.75;4.20;;;;;;;4.77;100.00;98261.78;4201547;28;20156;-73
2022/11/15 01:20:29;;;;;;;5.40;3.55;;;;;;;5.28;100.00;98256.63;4200224;28;20312;-73
2022/11/15 01:22:29;;;;;;;7.57;4.05;;;;;;;5.35;100.00;98263.09;4196732;28;20032;-73
2022/11/15 01:24:31;;;;;;;7.22;4.25;;;;;;;5.47;100.00;98254.06;4200152;28;20610;-73
2022/11/15 01:26:31;;;;;;;7.88;4.43;;;;;;;5.58;100.00;98260.63;4195522;28;20285;-73
2022/11/15 01:28:34;;;;;;;6.65;3.92;;;;;;;5.85;100.00;98255.44;4200969;28;20047;-73
2022/11/15 01:30:35;;;;;;;5.13;3.78;;;;;;;5.93;100.00;98245.47;4202392;28;20075;-73
2022/11/15 01:32:36;;;;;;;5.90;3.78;;;;;;;5.94;100.00;98250.63;4196029;28;20052;-73
2022/11/15 01:34:36;;;;;;;5.70;3.80;;;;;;;5.76;100.00;98255.59;4199860;28;20047;-73
2022/11/15 01:36:36;;;;;;;6.45;3.75;;;;;;;5.86;100.00;98257.03;4197732;28;20040;-73
2022/11/15 01:38:37;;;;;;;4.75;3.58;;;;;;;5.91;100.00;98248.59;4201312;28;20643;-73
2022/11/15 01:40:37;;;;;;;5.68;3.92;;;;;;;5.99;100.00;98249.56;4196914;28;20032;-73
2022/11/15 01:42:37;;;;;;;7.40;4.43;;;;;;;5.96;100.00;98244.75;4198089;28;20062;-73
2022/11/15 01:44:43;;;;;;;5.80;3.78;;;;;;;5.96;100.00;98245.59;4198287;28;20636;-73
2022/11/15 01:46:47;;;;;;;7.90;3.70;;;;;;;5.93;100.00;98232.53;4197566;28;20341;-73
2022/11/15 01:48:51;;;;;;;6.22;3.70;;;;;;;6.12;100.00;98232.66;4198625;28;20450;-73
2022/11/15 01:50:52;;;;;;;4.22;3.13;;;;;;;6.17;100.00;98229.63;4198344;28;20137;-73
2022/11/15 01:52:52;;;;;;;8.10;4.35;;;;;;;6.20;100.00;98236.34;4196762;28;20210;-73
2022/11/15 01:55:00;;;;;;;6.78;3.50;;;;;;;6.29;100.00;98222.44;4198724;28;20086;-73
2022/11/15 01:57:10;;;;;;;5.63;3.72;;;;;;;6.31;100.00;98218.19;4199065;28;20086;-73
2022/11/15 01:59:11;;;;;;;8.25;3.42;;;;;;;6.33;100.00;98226.88;4198352;28;20428;-73
2022/11/15 02:01:13;;;;;;;6.13;3.38;;;;;;;6.39;100.00;98219.16;4195158;28;20043;-73
2022/11/15 02:03:13;;;;;;;4.88;3.75;;;;;;;6.40;100.00;98224.31;4192673;28;20487;-73
2022/11/15 02:05:14;;;;;;;6.28;3.90;;;;;;;6.34;100.00;98228.47;4198895;28;20032;-73
2022/11/15 02:07:20;;;;;;;9.13;4.53;;;;;;;6.26;100.00;98214.91;4200411;28;20617;-73
2022/11/15 02:09:21;;;;;;;7.85;3.80;;;;;;;6.21;100.00;98213.25;4198484;28;20071;-73
2022/11/15 02:11:21;;;;;;;6.00;4.00;;;;;;;6.13;100.00;98216.97;4199179;28;20734;-73
2022/11/15 02:13:22;;;;;;;7.15;4.07;;;;;;;6.06;100.00;98222.28;4196240;28;20063;-73
2022/11/15 02:15:30;;;;;;;4.50;3.67;;;;;;;5.94;100.00;98208.63;4197574;28;20619;-73
2022/11/15 02:17:43;;;;;;;6.22;4.00;;;;;;;5.86;100.00;98213.09;4199433;28;20036;-73
2022/11/15 02:20:05;;;;;;;4.95;3.28;;;;;;;5.74;100.00;98210.44;4201559;28;20483;-73
2022/11/15 02:22:37;;;;;;;6.97;3.20;;;;;;;5.71;100.00;98208.41;4199795;28;20130;-73
2022/11/15 02:24:56;;;;;;;7.97;3.67;;;;;;;5.75;100.00;98206.56;4200998;28;20079;-73
2022/11/15 02:27:24;;;;;;;5.32;3.55;;;;;;;5.82;100.00;98209.47;4196193;28;20052;-73
2022/11/15 02:29:49;;;;;;;4.55;3.38;;;;;;;5.92;100.00;98200.75;4200409;28;20048;-73
2022/11/15 02:32:09;;;;;;;5.68;3.70;;;;;;;6.00;100.00;98201.72;4199445;28;20479;-73
2022/11/15 02:34:19;;;;;;;5.15;3.33;;;;;;;6.16;100.00;98206.06;4200739;28;20036;-73
2022/11/15 02:36:39;;;;;;;5.82;3.47;;;;;;;6.21;100.00;98194.03;4200735;28;20119;-73
2022/11/15 02:38:51;;;;;;;4.95;3.63;;;;;;;6.23;100.00;98193.66;4199970;28;20589;-73
2022/11/15 02:41:13;;;;;;;4.97;3.53;;;;;;;6.15;100.00;98203.69;4201249;28;20727;-73
2022/11/15 02:45:50;;;;;;;7.15;3.65;;;;;;;5.94;100.00;98197.63;4200593;28;20097;-73
2022/11/15 02:47:54;;;;;;;5.90;3.40;;;;;;;5.83;100.00;98198.16;4202238;28;20589;-73
2022/11/15 02:49:58;;;;;;;7.15;3.50;;;;;;;5.71;100.00;98200.97;4202587;28;20047;-73
2022/11/15 02:51:58;;;;;;;6.43;3.50;;;;;;;5.54;100.00;98201.28;4202792;28;20040;-73
2022/11/15 02:53:59;;;;;;;4.63;3.47;;;;;;;5.43;100.00;98190.03;4201447;28;20672;-73
2022/11/15 02:55:59;;;;;;;5.40;3.83;;;;;;;5.37;100.00;98191.44;4202175;28;20051;-73
2022/11/15 02:58:18;;;;;;;4.22;3.33;;;;;;;5.33;100.00;98193.28;4201981;28;20075;-73
2022/11/15 03:00:19;;;;;;;7.32;4.60;;;;;;;5.27;100.00;98195.47;4202591;28;20460;-73
2022/11/15 03:02:29;;;;;;;6.20;3.47;;;;;;;5.20;100.00;98199.97;4201530;28;20494;-73
2022/11/15 03:04:35;;;;;;;5.07;3.60;;;;;;;5.11;100.00;98196.56;4203209;28;20198;-73
2022/11/15 03:06:41;;;;;;;5.68;3.45;;;;;;;5.03;100.00;98190.09;4201121;28;20102;-73
2022/11/15 03:09:18;;;;;;;5.35;3.92;;;;;;;4.94;100.00;98195.72;4183508;28;20068;-73
2022/11/15 03:11:21;;;;;;;5.55;4.15;;;;;;;4.89;100.00;98187.75;4201679;28;20042;-73
2022/11/15 03:13:31;;;;;;;5.32;3.63;;;;;;;4.79;100.00;98186.28;4201851;28;20455;-73
2022/11/15 03:15:39;;;;;;;5.40;3.40;;;;;;;4.71;100.00;98180.94;4202342;28;20075;-73
2022/11/15 03:17:46;;;;;;;5.68;3.58;;;;;;;4.66;100.00;98183.94;4202443;28;20036;-73
2022/11/15 03:19:50;;;;;;;6.25;3.80;;;;;;;4.60;100.00;98185.31;4202200;28;20044;-73
2022/11/15 03:21:52;;;;;;;6.68;3.42;;;;;;;4.56;100.00;98184.41;4202026;28;20087;-73
2022/11/15 03:23:55;;;;;;;9.35;3.80;;;;;;;4.54;100.00;98181.19;4201569;28;20048;-73
2022/11/15 03:25:57;;;;;;;4.85;3.35;;;;;;;4.48;100.00;98184.19;4202477;28;20047;-73
2022/11/15 03:28:03;;;;;;;7.47;3.60;;;;;;;4.49;100.00;98183.03;4200648;28;20044;-73
2022/11/15 03:30:06;;;;;;;6.45;3.80;;;;;;;4.45;100.00;98182.13;4201035;28;20163;-73
2022/11/15 03:32:14;;;;;;;5.10;3.50;;;;;;;4.40;100.00;98176.09;4201778;28;20055;-73
2022/11/15 03:34:40;;;;;;;6.25;4.15;;;;;;;4.35;100.00;98179.84;4201423;28;20043;-73
2022/11/15 03:36:41;;;;;;;6.10;3.80;;;;;;;4.27;100.00;98177.25;4202137;28;20396;-73
2022/11/15 03:38:41;;;;;;;7.53;4.20;;;;;;;4.23;100.00;98177.94;4202526;28;20041;-73
2022/11/15 03:40:47;;;;;;;6.28;4.15;;;;;;;4.16;100.00;98180.44;4200958;28;20036;-73
2022/11/15 03:43:01;;;;;;;7.45;4.07;;;;;;;4.09;100.00;98180.22;4200862;28;20070;-73
2022/11/15 03:45:13;;;;;;;12.00;5.60;;;;;;;4.03;100.00;98180.78;4205097;28;20036;-73
2022/11/15 03:47:21;;;;;;;8.68;4.97;;;;;;;4.03;100.00;98169.84;4204349;28;20043;-73
2022/11/15 03:49:31;;;;;;;8.93;5.18;;;;;;;3.98;100.00;98178.28;4204617;28;20036;-73
2022/11/15 03:51:31;;;;;;;7.28;4.85;;;;;;;3.91;100.00;98176.91;4204710;28;20644;-73
2022/11/15 03:53:32;;;;;;;9.52;6.32;;;;;;;3.87;100.00;98161.50;4204114;28;20048;-73
2022/11/15 03:55:33;;;;;;;10.48;5.57;;;;;;;3.84;100.00;98173.16;4204843;28;20044;-73
2022/11/15 03:57:33;;;;;;;8.25;5.35;;;;;;;3.83;100.00;98164.13;4204337;28;20044;-73
2022/11/15 03:59:33;;;;;;;7.80;5.10;;;;;;;3.83;100.00;98157.88;4204107;28;20040;-73
2022/11/15 04:01:34;;;;;;;5.85;4.25;;;;;;;3.80;100.00;98158.53;4204943;28;20047;-73
2022/11/15 04:03:34;;;;;;;8.10;4.72;;;;;;;3.79;100.00;98157.72;4203547;28;20079;-73
2022/11/15 04:05:34;;;;;;;8.70;5.35;;;;;;;3.78;100.00;98160.81;4204115;28;20346;-73
2022/11/15 04:07:35;;;;;;;9.35;5.97;;;;;;;3.75;100.00;98169.72;4204815;28;20796;-73
2022/11/15 04:10:01;;;;;;;7.35;5.07;;;;;;;3.71;100.00;98158.63;4204401;28;20040;-73
2022/11/15 04:11:58;;;;;;;8.75;5.15;;;;;;;3.70;100.00;98165.25;4203478;28;20434;-73
2022/11/15 04:13:58;;;;;;;8.50;5.00;;;;;;;3.79;100.00;98165.94;4204073;28;20056;-73
2022/11/15 04:15:59;;;;;;;7.50;4.60;;;;;;;3.90;100.00;98160.84;4202668;28;20273;-73
2022/11/15 04:17:59;;;;;;;8.98;4.72;;;;;;;3.94;100.00;98165.28;4203903;28;20394;-73
2022/11/15 04:24:38;;;;;;;6.80;4.75;;;;;;;3.89;100.00;98160.03;4202764;28;20047;-73
2022/11/15 04:26:38;;;;;;;9.90;5.13;;;;;;;3.89;100.00;98148.28;4204554;28;20044;-73
2022/11/15 04:30:57;;;;;;;6.80;5.00;;;;;;;3.87;100.00;98158.78;4203755;28;20364;-73
2022/11/15 04:32:58;;;;;;;7.85;4.82;;;;;;;3.87;100.00;98148.63;4201413;28;20044;-73
2022/11/15 04:34:58;;;;;;;10.20;4.97;;;;;;;3.88;100.00;98155.69;4201898;28;20541;-73
2022/11/15 04:37:13;;;;;;;8.38;4.60;;;;;;;3.89;100.00;98154.56;4204677;28;20044;-73
2022/11/15 04:39:14;;;;;;;8.77;4.55;;;;;;;3.89;100.00;98164.72;4203661;28;20272;-73
2022/11/15 04:41:14;;;;;;;7.18;4.22;;;;;;;3.87;100.00;98156.03;4204144;28;20524;-73
2022/11/15 04:43:14;;;;;;;8.60;4.60;;;;;;;3.84;100.00;98148.50;4203406;28;20040;-73
2022/11/15 04:45:15;;;;;;;6.15;4.03;;;;;;;3.84;100.00;98153.97;4204605;28;20044;-73
2022/11/15 04:47:15;;;;;;;8.00;4.22;;;;;;;3.81;100.00;98147.28;4203426;28;20472;-73
2022/11/15 04:49:15;;;;;;;7.35;4.18;;;;;;;3.79;100.00;98144.06;4202168;28;20047;-73
2022/11/15 04:51:16;;;;;;;8.75;4.53;;;;;;;3.80;100.00;98151.13;4204801;28;20858;-73
2022/11/15 04:53:16;;;;;;;6.18;3.95;;;;;;;3.80;100.00;98153.06;4203204;28;20044;-73
2022/11/15 04:55:16;;;;;;;7.10;4.65;;;;;;;3.75;100.00;98153.31;4203240;28;20044;-73
2022/11/15 04:57:17;;;;;;;8.30;5.53;;;;;;;3.73;100.00;98152.84;4204360;28;20145;-73
2022/11/15 04:59:17;;;;;;;7.25;4.22;;;;;;;3.68;100.00;98151.13;4203652;28;20105;-73
2022/11/15 05:01:18;;;;;;;6.47;4.28;;;;;;;3.65;100.00;98149.88;4204196;28;20048;-73
2022/11/15 05:05:37;;;;;;;7.90;4.57;;;;;;;3.54;100.00;98151.44;4204027;28;20395;-73
2022/11/15 05:07:37;;;;;;;6.82;4.50;;;;;;;3.53;100.00;98143.56;4203657;28;20036;-73
2022/11/15 05:09:37;;;;;;;8.40;4.75;;;;;;;3.48;100.00;98141.06;4203854;28;20487;-73
2022/11/15 05:11:38;;;;;;;7.50;4.72;;;;;;;3.43;100.00;98149.50;4203813;28;20055;-73
2022/11/15 05:13:39;;;;;;;7.10;4.57;;;;;;;3.39;100.00;98146.63;4203276;28;20043;-73
2022/11/15 05:15:39;;;;;;;7.05;5.32;;;;;;;3.35;100.00;98146.50;4203724;28;20166;-73
2022/11/15 05:17:39;;;;;;;8.30;5.78;;;;;;;3.31;100.00;98153.81;4203659;28;20110;-73
2022/11/15 05:19:40;;;;;;;9.80;5.65;;;;;;;3.28;100.00;98148.19;4203554;28;20054;-73
2022/11/15 05:21:40;;;;;;;8.85;5.55;;;;;;;3.22;100.00;98146.81;4203492;28;20467;-73
2022/11/15 05:23:40;;;;;;;13.10;5.30;;;;;;;3.14;100.00;98151.22;4185635;28;20299;-73
2022/11/15 05:25:41;;;;;;;12.55;6.70;;;;;;;3.11;100.00;98149.16;4203162;28;20059;-73
2022/11/15 05:27:41;;;;;;;10.75;6.35;;;;;;;3.09;100.00;98146.78;4202316;28;20040;-73
2022/11/15 05:29:41;;;;;;;9.60;5.82;;;;;;;3.01;100.00;98144.13;4202304;28;20032;-73
2022/11/15 05:31:42;;;;;;;6.93;5.00;;;;;;;2.95;100.00;98145.47;4201540;28;20716;-73
2022/11/15 05:33:44;;;;;;;6.57;5.03;;;;;;;2.91;100.00;98153.56;4200062;28;20105;-73
2022/11/15 05:35:52;;;;;;;7.07;4.85;;;;;;;2.89;100.00;98138.59;4202784;28;20520;-73
2022/11/15 05:37:52;;;;;;;11.27;4.93;;;;;;;2.86;100.00;98147.47;4202740;28;20040;-73
2022/11/15 05:39:53;;;;;;;5.60;4.50;;;;;;;2.86;100.00;98147.47;4203213;28;20127;-73
2022/11/15 05:41:58;;;;;;;8.95;4.72;;;;;;;2.85;100.00;98152.16;4203280;28;20135;-73
2022/11/15 05:44:01;;;;;;;6.93;4.85;;;;;;;2.82;100.00;98136.44;4201343;28;20051;-73
2022/11/15 05:46:03;;;;;;;6.63;5.03;;;;;;;2.81;100.00;98143.00;4201614;28;20071;-73
2022/11/15 05:48:08;;;;;;;8.38;5.07;;;;;;;2.78;100.00;98139.03;4201565;28;20644;-73
2022/11/15 05:50:13;;;;;;;10.02;5.60;;;;;;;2.76;100.00;98132.31;4203306;28;20035;-73
2022/11/15 05:52:18;;;;;;;8.00;4.90;;;;;;;2.72;100.00;98142.28;4201387;28;20035;-73
2022/11/15 05:54:20;;;;;;;7.63;4.72;;;;;;;2.69;100.00;98130.09;4201285;28;20024;-73
2022/11/15 05:56:20;;;;;;;;;;;;;;;2.69;100.00;98146.50;4203227;28;21764;-73
2022/11/15 05:58:21;;;;;;;7.07;4.93;;;;;;;2.68;100.00;98133.19;4142326;27;19919;-73
2022/11/15 06:00:21;;;;;;;9.60;4.80;;;;;;;2.70;100.00;98136.38;4192288;28;20195;-73
2022/11/15 06:02:22;;;;;;;7.47;4.85;;;;;;;2.73;100.00;98128.31;4201390;28;20484;-73
2022/11/15 06:04:22;;;;;;;7.68;5.13;;;;;;;2.77;100.00;98131.97;4202692;28;20123;-73
2022/11/15 06:06:22;;;;;;;8.18;4.95;;;;;;;2.84;100.00;98128.69;4201354;28;20480;-73
2022/11/15 06:08:23;;;;;;;9.25;4.18;;;;;;;2.84;100.00;98128.69;4201938;28;20063;-73
2022/11/15 06:10:23;;;;;;;7.03;4.68;;;;;;;2.86;100.00;98125.63;4202156;28;20474;-73
2022/11/15 06:12:23;;;;;;;7.25;4.20;;;;;;;2.91;100.00;98126.22;4201066;28;20139;-73
2022/11/15 06:14:24;;;;;;;7.28;4.50;;;;;;;2.93;100.00;98132.16;4201746;28;20032;-73
2022/11/15 06:16:24;;;;;;;7.45;4.15;;;;;;;2.94;100.00;98132.94;4201288;28;20055;-73
2022/11/15 06:18:25;;;;;;;6.35;4.22;;;;;;;2.97;100.00;98138.53;4201917;28;20032;-73
2022/11/15 06:20:27;;;;;;;7.30;4.55;;;;;;;3.05;100.00;98150.50;4202299;28;20210;-73
2022/11/15 06:22:27;;;;;;;6.35;4.35;;;;;;;3.04;100.00;98146.97;4201264;28;20036;-73
2022/11/15 06:24:28;;;;;;;6.13;3.50;;;;;;;3.08;100.00;98156.13;4200996;28;20036;-73
2022/11/15 06:26:28;;;;;;;7.13;4.00;;;;;;;3.08;100.00;98158.84;4202197;28;20452;-73
2022/11/15 06:28:29;;;;;;;9.32;4.47;;;;;;;3.09;100.00;98151.44;4202444;28;20036;-73
2022/11/15 06:30:30;;;;;;;9.15;4.80;;;;;;;3.09;100.00;98143.25;4201565;28;20136;-73
2022/11/15 06:32:30;;;;;;;7.22;4.05;;;;;;;3.09;100.00;98154.97;4200888;28;20526;-73
2022/11/15 06:34:31;;;;;;;6.40;4.20;;;;;;;3.12;100.00;98158.97;4202165;28;20492;-73
2022/11/15 06:36:34;;;;;;;11.00;5.05;;;;;;;3.10;100.00;98161.25;4200146;28;20036;-73
2022/11/15 06:38:35;;;;;;;10.98;4.43;;;;;;;3.09;100.00;98165.13;4202806;28;20049;-73
2022/11/15 06:40:36;;;;;;;6.45;4.05;;;;;;;3.08;100.00;98163.53;4200853;28;20043;-73
2022/11/15 06:42:37;;;;;;;11.35;4.90;;;;;;;3.04;100.00;98155.19;4201093;28;20052;-73
2022/11/15 06:44:37;;;;;;;9.38;4.85;;;;;;;3.03;100.00;98159.06;4201043;28;20042;-73
2022/11/15 06:46:37;;;;;;;8.40;5.05;;;;;;;3.01;100.00;98164.06;4201718;28;20046;-73
2022/11/15 06:48:38;;;;;;;12.48;5.07;;;;;;;3.01;100.00;98158.59;4202208;28;20073;-73
2022/11/15 06:50:38;;;;;;;11.43;5.03;;;;;;;2.99;100.00;98169.06;4202131;28;20253;-73
2022/11/15 06:52:38;;;;;;;8.52;4.95;;;;;;;2.98;100.00;98169.38;4201497;28;20321;-73
2022/11/15 06:54:39;;;;;;;9.25;4.95;;;;;;;2.92;100.00;98168.81;4200850;28;20059;-73
2022/11/15 06:56:39;;;;;;;17.33;4.50;;;;;;;2.89;100.00;98179.59;4201735;28;20473;-73
2022/11/15 06:58:39;;;;;;;18.45;5.85;;;;;;;2.83;100.00;98170.03;4202274;28;20052;-73
2022/11/15 07:00:40;;;;;;;12.82;4.78;;;;;;;2.78;100.00;98174.53;4201671;28;20802;-73
2022/11/15 07:02:40;;;;;;;11.98;4.68;;;;;;;2.75;100.00;98168.97;4201538;28;20075;-73
2022/11/15 07:04:41;;;;;;;15.48;5.70;;;;;;;2.75;100.00;98163.50;4201903;28;20071;-73
2022/11/15 07:06:41;;;;;;;6.28;4.28;;;;;;;2.76;100.00;98151.44;4201797;28;20071;-73
2022/11/15 07:08:41;;;;;;;12.68;5.50;;;;;;;2.80;100.00;98168.75;4202124;28;20091;-73
2022/11/15 07:10:41;;;;;;;9.55;4.72;;;;;;;2.81;100.00;98156.66;4202142;28;20075;-73
2022/11/15 07:12:42;;;;;;;5.80;4.40;;;;;;;2.79;100.00;98159.75;4201001;28;20084;-73
2022/11/15 07:14:42;;;;;;;13.30;5.57;;;;;;;2.80;100.00;98166.00;4201773;28;20491;-73
2022/11/15 07:16:42;;;;;;;7.68;4.80;;;;;;;2.82;100.00;98163.75;4202359;28;20048;-73
2022/11/15 07:18:43;;;;;;;7.50;3.83;;;;;;;2.87;100.00;98165.47;4203931;28;20349;-73
2022/11/15 07:20:43;;;;;;;7.28;5.20;;;;;;;2.89;100.00;98171.41;4205240;28;20432;-73
2022/11/15 07:22:47;;;;;;;8.07;4.25;;;;;;;2.88;100.00;98173.31;4204608;28;20385;-73
2022/11/15 07:24:47;;;;;;;8.75;5.00;;;;;;;2.93;100.00;98170.41;4204740;28;20036;-73
2022/11/15 07:26:47;;;;;;;8.80;5.60;;;;;;;3.00;100.00;98169.88;4203342;28;20189;-73
2022/11/15 07:28:48;;;;;;;6.63;5.25;;;;;;;2.99;100.00;98171.81;4203085;28;20472;-73
2022/11/15 07:30:48;;;;;;;10.10;5.75;;;;;;;3.04;100.00;98171.59;4202586;28;20067;-73
2022/11/15 07:32:59;;;;;;;10.18;5.45;;;;;;;3.08;100.00;98169.00;4203952;28;20055;-73
2022/11/15 07:34:59;;;;;;;10.98;5.55;;;;;;;3.09;100.00;98167.84;4203432;28;20053;-73
2022/11/15 07:37:00;;;;;;;10.30;5.05;;;;;;;3.15;100.00;98169.25;4201202;28;20046;-73
2022/11/15 07:39:00;;;;;;;12.45;4.97;;;;;;;3.16;100.00;98168.09;4203178;28;20168;-73
2022/11/15 07:41:03;;;;;;;9.82;5.47;;;;;;;3.22;100.00;98169.47;4202485;28;20098;-74
2022/11/15 07:43:06;;;;;;;10.27;5.78;;;;;;;3.23;100.00;98165.63;4198468;28;20046;-73
2022/11/15 07:45:07;;;;;;;7.85;4.97;;;;;;;3.28;100.00;98164.59;4200142;28;20055;-73
2022/11/15 07:47:07;;;;;;;7.35;5.28;;;;;;;3.34;100.00;98160.53;4201228;28;20036;-73
2022/11/15 07:49:07;;;;;;;11.75;6.05;;;;;;;3.37;100.00;98162.56;4199179;28;20043;-73
2022/11/15 07:51:12;;;;;;;11.45;6.28;;;;;;;3.41;100.00;98165.44;4204280;28;20063;-73
2022/11/15 07:53:12;;;;;;;11.85;6.47;;;;;;;3.51;100.00;98159.53;4203418;28;20050;-73
2022/11/15 07:55:13;;;;;;;13.20;7.50;;;;;;;3.63;100.00;98162.28;4202710;28;20043;-73
2022/11/15 07:57:13;;;;;;;11.85;6.30;;;;;;;3.68;100.00;98156.59;4203755;28;20435;-73
2022/11/15 07:59:14;;;;;;;11.25;6.40;;;;;;;3.76;100.00;98149.41;4202662;28;20032;-73
2022/11/15 08:01:14;;;;;;;15.05;7.30;;;;;;;3.81;100.00;98154.69;4203133;28;20053;-73
2022/11/15 08:03:16;;;;;;;11.45;7.65;;;;;;;3.86;100.00;98144.28;4203612;28;20047;-73
2022/11/15 08:05:16;;;;;;;11.48;6.80;;;;;;;3.91;100.00;98140.53;4203719;28;20068;-73
2022/11/15 08:07:17;;;;;;;12.10;8.55;;;;;;;3.99;100.00;98138.81;4202576;28;20068;-73
2022/11/15 08:09:17;;;;;;;15.10;7.15;;;;;;;4.05;100.00;98134.69;4204468;28;20056;-73
2022/11/15 08:11:17;;;;;;;8.43;6.15;;;;;;;4.14;100.00;98138.13;4198907;28;20484;-73
2022/11/15 08:13:18;;;;;;;10.77;6.80;;;;;;;4.20;100.00;98142.22;4196351;28;20043;-73
2022/11/15 08:15:18;;;;;;;11.27;6.85;;;;;;;4.28;100.00;98141.28;4200047;28;20468;-73
2022/11/15 08:17:19;;;;;;;13.50;6.93;;;;;;;4.35;100.00;98147.00;4198438;28;20067;-73
2022/11/15 08:19:19;;;;;;;12.32;6.22;;;;;;;4.43;100.00;98148.81;4200090;28;20601;-73
2022/11/15 08:21:21;;;;;;;14.88;6.00;;;;;;;4.53;100.00;98150.25;4202670;28;20438;-73
2022/11/15 08:23:21;;;;;;;13.25;6.65;;;;;;;4.63;100.00;98146.25;4200071;28;20048;-73
2022/11/15 08:25:22;;;;;;;7.88;5.63;;;;;;;4.76;100.00;98145.06;4200632;28;20040;-73
2022/11/15 08:27:22;;;;;;;10.48;6.07;;;;;;;4.89;100.00;98135.66;4199703;28;20477;-73
2022/11/15 08:29:22;;;;;;;9.43;6.30;;;;;;;5.01;100.00;98138.34;4184654;28;20144;-73
2022/11/15 08:31:23;;;;;;;20.88;6.93;;;;;;;5.15;100.00;98137.16;4203221;28;20602;-73
2022/11/15 08:33:23;;;;;;;12.38;6.95;;;;;;;5.22;100.00;98132.66;4202163;28;20131;-73
2022/11/15 08:35:24;;;;;;;8.90;6.13;;;;;;;5.35;100.00;98138.84;4202413;28;20549;-73
2022/11/15 08:37:25;;;;;;;12.30;6.88;;;;;;;5.46;100.00;98133.66;4201094;28;20488;-73
2022/11/15 08:39:25;;;;;;;14.07;8.77;;;;;;;5.61;100.00;98125.44;4203400;28;20287;-73
2022/11/15 08:41:27;;;;;;;15.10;7.57;;;;;;;5.73;100.00;98119.06;4203048;28;20040;-73
2022/11/15 08:43:28;;;;;;;15.00;8.38;;;;;;;5.86;100.00;98125.25;4202110;28;20393;-73
2022/11/15 08:45:29;;;;;;;14.55;9.85;;;;;;;5.96;100.00;98113.78;4202476;28;20032;-73
2022/11/15 08:47:30;;;;;;;15.63;9.00;;;;;;;6.08;100.00;98121.91;4201704;28;20043;-73
2022/11/15 08:49:30;;;;;;;16.13;8.15;;;;;;;6.15;100.00;98124.81;4203278;28;20494;-73
2022/11/15 08:51:30;;;;;;;15.82;9.05;;;;;;;6.25;100.00;98117.16;4203764;28;20132;-73
2022/11/15 08:53:31;;;;;;;13.48;8.98;;;;;;;6.37;100.00;98119.78;4202764;28;20483;-73
2022/11/15 08:55:31;;;;;;;14.10;7.95;;;;;;;6.44;100.00;98114.44;4202934;28;20042;-73
2022/11/15 08:57:31;;;;;;;11.50;7.47;;;;;;;6.52;100.00;98120.91;4203257;28;20131;-73
2022/11/15 08:59:31;;;;;;;12.23;8.23;;;;;;;6.60;100.00;98111.66;4203202;28;20063;-73
2022/11/15 09:01:32;;;;;;;11.75;7.65;;;;;;;6.66;100.00;98105.50;4203214;28;20563;-73
2022/11/15 09:03:32;;;;;;;13.23;8.30;;;;;;;6.73;100.00;98111.16;4202312;28;20071;-73
2022/11/15 09:05:35;;;;;;;10.95;8.00;;;;;;;6.81;100.00;98112.09;4201256;28;20369;-73
2022/11/15 09:07:36;;;;;;;12.82;6.95;;;;;;;6.88;100.00;98106.75;4200877;28;20074;-73
2022/11/15 09:09:37;;;;;;;11.68;6.70;;;;;;;6.93;100.00;98100.16;4201662;28;20452;-73
2022/11/15 09:11:37;;;;;;;8.80;6.10;;;;;;;6.96;100.00;98100.22;4202047;28;20142;-73
2022/11/15 09:13:38;;;;;;;10.88;6.65;;;;;;;7.04;100.00;98103.91;4201854;28;20071;-73
2022/11/15 09:15:38;;;;;;;8.32;5.85;;;;;;;7.14;100.00;98105.28;4199443;28;20350;-73
2022/11/15 09:17:38;;;;;;;11.30;7.10;;;;;;;7.22;100.00;98115.25;4197115;28;20089;-73
2022/11/15 09:19:39;;;;;;;13.70;7.20;;;;;;;7.30;100.00;98108.72;4198183;28;20040;-73
2022/11/15 09:21:39;;;;;;;15.65;6.95;;;;;;;7.38;100.00;98106.91;4202104;28;20504;-73
2022/11/15 09:23:39;;;;;;;10.82;6.20;;;;;;;7.46;100.00;98105.88;4201169;28;20611;-73
2022/11/15 09:25:40;;;;;;;8.45;5.30;;;;;;;7.48;100.00;98103.53;4202558;28;20044;-73
2022/11/15 09:27:40;;;;;;;8.32;5.38;;;;;;;7.56;100.00;98105.25;4202487;28;20066;-73
2022/11/15 09:29:41;;;;;;;9.13;5.57;;;;;;;7.67;100.00;98105.44;4202685;28;20483;-73
2022/11/15 09:31:41;;;;;;;11.98;6.25;;;;;;;7.75;100.00;98105.19;4203119;28;20040;-73
2022/11/15 09:33:45;;;;;;;8.77;5.50;;;;;;;7.77;100.00;98100.09;4201598;28;20370;-73
2022/11/15 09:35:46;;;;;;;9.68;5.30;;;;;;;7.83;100.00;98095.88;4201911;28;20048;-73
2022/11/15 09:37:46;;;;;;;9.05;5.65;;;;;;;7.86;100.00;98105.34;4203352;28;20189;-73
2022/11/15 09:39:46;;;;;;;7.30;5.35;;;;;;;7.86;100.00;98092.41;4202658;28;20303;-73
2022/11/15 09:41:56;;;;;;;8.82;5.82;;;;;;;7.92;100.00;98086.56;4203083;28;20156;-73
2022/11/15 09:44:26;;;;;;;8.82;5.95;;;;;;;7.91;100.00;98085.75;4202075;28;20167;-74
2022/11/15 09:46:51;;;;;;;10.60;6.40;;;;;;;7.97;100.00;98084.28;4202614;28;20036;-73